createdAt,value
2018-09-24T00:00:27.611Z,0.00
2018-09-24T00:01:27.611Z,0.00
2018-09-24T00:02:27.585Z,0.00
2018-09-24T00:03:27.579Z,0.00
2018-09-24T00:04:27.560Z,0.00
2018-09-24T00:05:27.552Z,0.00
2018-09-24T00:06:27.580Z,0.00
2018-09-24T00:07:27.545Z,0.00
2018-09-24T00:08:27.526Z,0.00
2018-09-24T00:09:27.503Z,0.00
2018-09-24T00:10:27.499Z,0.00
2018-09-24T00:11:27.505Z,0.00
2018-09-24T00:12:27.489Z,0.00
2018-09-24T00:13:27.466Z,0.00
2018-09-24T00:14:27.448Z,0.00
2018-09-24T00:15:27.447Z,0.00
2018-09-24T00:16:27.442Z,0.00
2018-09-24T00:17:27.412Z,0.00
2018-09-24T00:18:27.426Z,0.00
2018-09-24T00:19:27.417Z,0.00
2018-09-24T00:20:27.379Z,0.00
2018-09-24T00:21:27.385Z,0.00
2018-09-24T00:22:27.402Z,0.00
2018-09-24T00:23:27.374Z,0.00
2018-09-24T00:24:27.342Z,0.00
2018-09-24T00:25:27.340Z,0.00
2018-09-24T00:26:27.316Z,0.00
2018-09-24T00:27:27.340Z,0.00
2018-09-24T00:28:27.311Z,0.00
2018-09-24T00:29:27.293Z,0.00
2018-09-24T00:30:27.271Z,0.00
2018-09-24T00:31:27.268Z,0.00
2018-09-24T00:32:27.256Z,0.00
2018-09-24T00:33:27.419Z,0.00
2018-09-24T00:34:27.228Z,0.00
2018-09-24T00:35:27.225Z,0.00
2018-09-24T00:36:27.206Z,0.00
2018-09-24T00:37:27.220Z,0.00
2018-09-24T00:38:27.207Z,0.00
2018-09-24T00:39:27.181Z,0.00
2018-09-24T00:40:27.162Z,0.00
2018-09-24T00:41:27.159Z,0.00
2018-09-24T00:42:27.136Z,0.00
2018-09-24T00:43:27.268Z,0.00
2018-09-24T00:44:27.134Z,0.00
2018-09-24T00:45:27.105Z,0.00
2018-09-24T00:46:27.105Z,0.00
2018-09-24T00:47:27.082Z,0.00
2018-09-24T00:48:27.115Z,0.00
2018-09-24T00:49:27.062Z,0.00
2018-09-24T00:50:27.047Z,0.00
2018-09-24T00:51:27.049Z,0.00
2018-09-24T00:52:27.037Z,0.00
2018-09-24T00:53:27.040Z,0.00
2018-09-24T00:54:27.000Z,0.00
2018-09-24T00:55:26.990Z,0.00
2018-09-24T00:56:26.978Z,0.00
2018-09-24T00:57:26.973Z,0.00
2018-09-24T00:58:27.016Z,0.00
2018-09-24T00:59:26.984Z,0.00
2018-09-24T01:00:26.940Z,0.00
2018-09-24T01:01:26.935Z,0.00
2018-09-24T01:02:26.916Z,0.00
2018-09-24T01:03:26.931Z,0.00
2018-09-24T01:04:26.898Z,0.00
2018-09-24T01:05:26.885Z,0.00
2018-09-24T01:06:26.878Z,0.00
2018-09-24T01:07:26.863Z,0.00
2018-09-24T01:08:26.890Z,0.00
2018-09-24T01:09:26.837Z,0.00
2018-09-24T01:10:26.832Z,0.00
2018-09-24T01:11:26.816Z,0.00
2018-09-24T01:12:26.803Z,0.00
2018-09-24T01:13:26.798Z,0.00
2018-09-24T01:14:26.811Z,0.00
2018-09-24T01:15:26.768Z,0.00
2018-09-24T01:16:26.773Z,0.00
2018-09-24T01:17:26.748Z,0.00
2018-09-24T01:18:26.755Z,0.00
2018-09-24T01:19:26.730Z,0.00
2018-09-24T01:20:26.741Z,0.00
2018-09-24T01:21:26.726Z,0.00
2018-09-24T01:22:26.712Z,0.00
2018-09-24T01:23:26.686Z,0.00
2018-09-24T01:24:26.672Z,0.00
2018-09-24T01:25:26.681Z,0.00
2018-09-24T01:26:26.651Z,0.00
2018-09-24T01:27:26.642Z,0.00
2018-09-24T01:28:26.632Z,0.00
2018-09-24T01:29:26.617Z,0.00
2018-09-24T01:30:26.624Z,0.00
2018-09-24T01:31:26.596Z,0.00
2018-09-24T01:32:26.586Z,0.00
2018-09-24T01:33:26.577Z,0.00
2018-09-24T01:34:26.599Z,0.00
2018-09-24T01:35:26.585Z,0.00
2018-09-24T01:36:26.542Z,0.00
2018-09-24T01:37:26.534Z,0.00
2018-09-24T01:38:26.528Z,0.00
2018-09-24T01:39:26.527Z,0.00
2018-09-24T01:40:26.529Z,0.00
2018-09-24T01:41:26.484Z,0.00
2018-09-24T01:42:26.471Z,0.00
2018-09-24T01:44:27.593Z,0.00
2018-09-24T01:45:26.460Z,0.00
2018-09-24T01:46:26.448Z,0.00
2018-09-24T01:47:26.428Z,0.00
2018-09-24T01:48:26.415Z,0.00
2018-09-24T01:49:26.396Z,0.00
2018-09-24T01:50:26.405Z,0.00
2018-09-24T01:51:26.378Z,0.00
2018-09-24T01:52:26.377Z,0.00
2018-09-24T01:53:26.354Z,0.00
2018-09-24T01:54:26.368Z,0.00
2018-09-24T01:55:26.352Z,0.00
2018-09-24T01:56:26.346Z,0.00
2018-09-24T01:57:26.319Z,0.00
2018-09-24T01:58:26.296Z,0.00
2018-09-24T01:59:26.287Z,0.00
2018-09-24T02:00:26.278Z,0.00
2018-09-24T02:01:26.284Z,0.00
2018-09-24T02:03:27.409Z,0.00
2018-09-24T02:04:26.229Z,0.00
2018-09-24T02:05:26.219Z,0.00
2018-09-24T02:06:26.228Z,0.00
2018-09-24T02:07:26.204Z,0.00
2018-09-24T02:08:26.201Z,0.00
2018-09-24T02:09:26.179Z,0.00
2018-09-24T02:10:26.167Z,0.00
2018-09-24T02:11:26.177Z,0.00
2018-09-24T02:12:26.165Z,0.00
2018-09-24T02:13:26.136Z,0.00
2018-09-24T02:14:26.124Z,0.00
2018-09-24T02:15:26.112Z,0.00
2018-09-24T02:16:26.103Z,0.00
2018-09-24T02:17:26.166Z,0.00
2018-09-24T02:18:26.084Z,0.00
2018-09-24T02:19:26.065Z,0.00
2018-09-24T02:20:26.083Z,0.00
2018-09-24T02:21:26.046Z,0.00
2018-09-24T02:22:26.070Z,0.00
2018-09-24T02:23:26.024Z,0.00
2018-09-24T02:25:27.188Z,0.00
2018-09-24T02:26:25.993Z,0.00
2018-09-24T02:27:26.024Z,0.00
2018-09-24T02:28:25.970Z,0.00
2018-09-24T02:29:25.964Z,0.00
2018-09-24T02:30:25.946Z,0.00
2018-09-24T02:31:25.934Z,0.00
2018-09-24T02:32:25.941Z,0.00
2018-09-24T02:33:25.919Z,0.00
2018-09-24T02:34:25.905Z,0.00
2018-09-24T02:35:25.895Z,0.00
2018-09-24T02:36:25.892Z,0.00
2018-09-24T02:37:25.893Z,0.00
2018-09-24T02:38:25.854Z,0.00
2018-09-24T02:39:25.851Z,0.00
2018-09-24T02:40:25.846Z,0.00
2018-09-24T02:41:25.830Z,0.00
2018-09-24T02:42:25.827Z,0.00
2018-09-24T02:43:25.807Z,0.00
2018-09-24T02:44:25.796Z,0.00
2018-09-24T02:45:25.783Z,0.00
2018-09-24T02:46:25.778Z,0.00
2018-09-24T02:47:25.880Z,0.00
2018-09-24T02:48:25.743Z,0.00
2018-09-24T02:49:25.748Z,0.00
2018-09-24T02:50:25.725Z,0.00
2018-09-24T02:51:25.722Z,0.00
2018-09-24T02:52:25.731Z,0.00
2018-09-24T02:53:25.707Z,0.00
2018-09-24T02:54:25.677Z,0.00
2018-09-24T02:55:25.670Z,0.00
2018-09-24T02:57:26.823Z,0.00
2018-09-24T02:58:25.647Z,0.00
2018-09-24T02:59:25.634Z,0.00
2018-09-24T03:00:25.630Z,0.00
2018-09-24T03:01:25.731Z,0.00
2018-09-24T03:02:25.617Z,0.00
2018-09-24T03:03:25.583Z,0.00
2018-09-24T03:04:25.573Z,0.00
2018-09-24T03:05:25.556Z,0.00
2018-09-24T03:06:25.548Z,0.00
2018-09-24T03:07:25.564Z,0.00
2018-09-24T03:08:25.536Z,0.00
2018-09-24T03:09:25.524Z,0.00
2018-09-24T03:10:25.512Z,0.00
2018-09-24T03:11:25.493Z,0.00
2018-09-24T03:12:25.568Z,0.00
2018-09-24T03:13:25.475Z,0.00
2018-09-24T03:14:25.466Z,0.00
2018-09-24T03:15:25.461Z,0.00
2018-09-24T03:16:25.462Z,0.00
2018-09-24T03:17:25.479Z,0.00
2018-09-24T03:18:25.424Z,0.00
2018-09-24T03:19:25.400Z,0.00
2018-09-24T03:20:25.402Z,0.00
2018-09-24T03:21:25.394Z,0.00
2018-09-24T03:22:25.390Z,0.00
2018-09-24T03:24:26.488Z,0.00
2018-09-24T03:25:25.344Z,0.00
2018-09-24T03:26:25.379Z,0.00
2018-09-24T03:27:25.351Z,0.00
2018-09-24T03:28:25.300Z,0.00
2018-09-24T03:29:25.300Z,0.00
2018-09-24T03:30:25.290Z,0.00
2018-09-24T03:31:25.284Z,0.00
2018-09-24T03:32:25.281Z,0.00
2018-09-24T03:33:25.258Z,0.00
2018-09-24T03:34:25.239Z,0.00
2018-09-24T03:36:26.361Z,0.00
2018-09-24T03:37:25.242Z,0.00
2018-09-24T03:38:25.276Z,0.00
2018-09-24T03:40:26.333Z,0.00
2018-09-24T03:41:25.160Z,0.00
2018-09-24T03:42:25.194Z,0.00
2018-09-24T03:43:25.181Z,0.00
2018-09-24T03:44:25.134Z,0.00
2018-09-24T03:45:25.156Z,0.00
2018-09-24T03:46:25.107Z,0.00
2018-09-24T03:47:25.102Z,0.00
2018-09-24T03:49:26.210Z,0.00
2018-09-24T03:50:25.065Z,0.00
2018-09-24T03:51:25.074Z,0.00
2018-09-24T03:52:25.085Z,0.00
2018-09-24T03:53:25.060Z,0.00
2018-09-24T03:54:25.026Z,0.00
2018-09-24T03:55:25.035Z,0.00
2018-09-24T03:56:25.009Z,0.00
2018-09-24T03:57:24.988Z,0.00
2018-09-24T03:58:25.013Z,0.00
2018-09-24T03:59:24.983Z,0.00
2018-09-24T04:00:24.965Z,0.00
2018-09-24T04:01:24.941Z,0.00
2018-09-24T04:02:24.928Z,0.00
2018-09-24T04:03:24.951Z,0.00
2018-09-24T04:04:24.932Z,0.00
2018-09-24T04:06:26.050Z,0.00
2018-09-24T04:07:24.877Z,0.00
2018-09-24T04:08:24.874Z,0.00
2018-09-24T04:09:24.905Z,0.00
2018-09-24T04:10:24.840Z,0.00
2018-09-24T04:12:24.821Z,0.00
2018-09-24T04:13:24.819Z,0.00
2018-09-24T04:14:24.820Z,0.00
2018-09-24T04:15:24.786Z,0.00
2018-09-24T04:16:24.781Z,0.00
2018-09-24T04:17:24.779Z,0.00
2018-09-24T04:18:24.763Z,0.00
2018-09-24T04:19:24.783Z,0.00
2018-09-24T04:20:24.733Z,0.00
2018-09-24T04:21:24.720Z,0.00
2018-09-24T04:22:24.723Z,0.00
2018-09-24T04:23:24.702Z,0.00
2018-09-24T04:24:24.713Z,0.00
2018-09-24T04:25:24.685Z,0.00
2018-09-24T04:26:24.806Z,0.00
2018-09-24T04:27:24.664Z,0.00
2018-09-24T04:28:24.655Z,0.00
2018-09-24T04:29:24.673Z,0.00
2018-09-24T04:30:24.621Z,0.00
2018-09-24T04:31:24.611Z,0.00
2018-09-24T04:32:24.609Z,0.00
2018-09-24T04:33:24.590Z,0.00
2018-09-24T04:34:24.620Z,0.00
2018-09-24T04:35:24.576Z,0.00
2018-09-24T04:36:24.558Z,0.00
2018-09-24T04:37:24.547Z,0.00
2018-09-24T04:38:24.536Z,0.00
2018-09-24T04:39:24.543Z,0.00
2018-09-24T04:40:24.556Z,0.00
2018-09-24T04:41:24.511Z,0.00
2018-09-24T04:42:24.490Z,0.00
2018-09-24T04:43:24.489Z,0.00
2018-09-24T04:44:24.467Z,0.00
2018-09-24T04:45:24.490Z,0.00
2018-09-24T04:46:24.444Z,0.00
2018-09-24T04:47:24.469Z,0.00
2018-09-24T04:48:24.428Z,0.00
2018-09-24T04:49:24.419Z,0.00
2018-09-24T04:50:24.447Z,0.00
2018-09-24T04:51:24.392Z,0.00
2018-09-24T04:52:24.377Z,0.00
2018-09-24T04:53:24.366Z,0.00
2018-09-24T04:54:24.379Z,0.00
2018-09-24T04:55:24.377Z,0.00
2018-09-24T04:56:24.339Z,0.00
2018-09-24T04:57:24.351Z,0.00
2018-09-24T04:58:24.321Z,0.00
2018-09-24T04:59:24.305Z,0.00
2018-09-24T05:00:24.291Z,0.00
2018-09-24T05:01:24.328Z,0.00
2018-09-24T05:02:24.274Z,0.00
2018-09-24T05:03:24.264Z,0.00
2018-09-24T05:04:24.260Z,0.00
2018-09-24T05:05:24.249Z,0.00
2018-09-24T05:06:24.252Z,0.00
2018-09-24T05:07:24.221Z,0.00
2018-09-24T05:08:24.230Z,0.00
2018-09-24T05:09:24.193Z,0.00
2018-09-24T05:10:24.186Z,0.00
2018-09-24T05:11:24.189Z,0.00
2018-09-24T05:12:24.158Z,0.00
2018-09-24T05:13:24.161Z,0.00
2018-09-24T05:14:24.149Z,0.00
2018-09-24T05:15:24.139Z,0.00
2018-09-24T05:16:24.198Z,0.00
2018-09-24T05:17:24.139Z,0.00
2018-09-24T05:18:24.115Z,0.00
2018-09-24T05:19:24.090Z,0.00
2018-09-24T05:20:24.072Z,0.00
2018-09-24T05:21:24.080Z,0.00
2018-09-24T05:22:24.063Z,5.62
2018-09-24T05:23:24.040Z,5.62
2018-09-24T05:24:24.025Z,5.62
2018-09-24T05:25:24.017Z,5.62
2018-09-24T05:26:24.095Z,5.62
2018-09-24T05:27:24.100Z,5.62
2018-09-24T05:28:24.005Z,5.62
2018-09-24T05:29:23.991Z,5.62
2018-09-24T05:30:23.973Z,5.62
2018-09-24T05:31:23.974Z,5.62
2018-09-24T05:32:23.984Z,11.25
2018-09-24T05:33:23.972Z,11.25
2018-09-24T05:34:23.980Z,11.25
2018-09-24T05:35:23.921Z,11.25
2018-09-24T05:36:23.924Z,11.25
2018-09-24T05:37:23.886Z,11.25
2018-09-24T05:38:23.879Z,11.25
2018-09-24T05:39:23.872Z,16.88
2018-09-24T05:40:23.864Z,16.88
2018-09-24T05:41:23.926Z,16.88
2018-09-24T05:42:23.835Z,16.88
2018-09-24T05:43:23.822Z,16.88
2018-09-24T05:44:23.808Z,16.88
2018-09-24T05:45:23.802Z,16.88
2018-09-24T05:46:23.793Z,22.50
2018-09-24T05:47:23.796Z,22.50
2018-09-24T05:48:23.767Z,28.12
2018-09-24T05:49:23.765Z,22.50
2018-09-24T05:50:23.751Z,22.50
2018-09-24T05:51:23.726Z,22.50
2018-09-24T05:52:23.751Z,22.50
2018-09-24T05:53:23.718Z,22.50
2018-09-24T05:54:23.830Z,22.50
2018-09-24T05:55:23.691Z,28.12
2018-09-24T05:56:23.686Z,28.12
2018-09-24T05:57:23.792Z,28.12
2018-09-24T05:58:23.653Z,28.12
2018-09-24T05:59:23.677Z,28.12
2018-09-24T06:00:23.632Z,28.12
2018-09-24T06:01:23.632Z,33.75
2018-09-24T06:02:23.629Z,33.75
2018-09-24T06:03:23.606Z,33.75
2018-09-24T06:04:23.673Z,33.75
2018-09-24T06:05:23.577Z,33.75
2018-09-24T06:06:23.569Z,33.75
2018-09-24T06:07:23.615Z,39.38
2018-09-24T06:08:23.547Z,39.38
2018-09-24T06:09:23.536Z,39.38
2018-09-24T06:10:23.525Z,39.38
2018-09-24T06:11:23.547Z,39.38
2018-09-24T06:12:23.523Z,39.38
2018-09-24T06:13:23.493Z,39.38
2018-09-24T06:14:23.482Z,45.00
2018-09-24T06:15:23.479Z,45.00
2018-09-24T06:16:23.456Z,45.00
2018-09-24T06:17:23.471Z,45.00
2018-09-24T06:18:23.442Z,45.00
2018-09-24T06:19:23.421Z,45.00
2018-09-24T06:20:23.426Z,45.00
2018-09-24T06:21:23.421Z,45.00
2018-09-24T06:22:23.405Z,50.62
2018-09-24T06:23:23.405Z,50.62
2018-09-24T06:24:23.369Z,50.62
2018-09-24T06:25:23.359Z,50.62
2018-09-24T06:26:23.347Z,50.62
2018-09-24T06:27:23.340Z,50.62
2018-09-24T06:28:23.381Z,50.62
2018-09-24T06:29:23.327Z,50.62
2018-09-24T06:30:23.323Z,56.25
2018-09-24T06:31:23.325Z,56.25
2018-09-24T06:32:23.309Z,56.25
2018-09-24T06:33:23.313Z,56.25
2018-09-24T06:34:23.324Z,56.25
2018-09-24T06:35:23.265Z,56.25
2018-09-24T06:36:23.242Z,61.88
2018-09-24T06:37:23.312Z,61.88
2018-09-24T06:38:23.230Z,61.88
2018-09-24T06:39:23.222Z,61.88
2018-09-24T06:40:23.198Z,61.88
2018-09-24T06:41:23.193Z,61.88
2018-09-24T06:42:23.173Z,61.88
2018-09-24T06:43:23.181Z,61.88
2018-09-24T06:44:23.148Z,61.88
2018-09-24T06:45:23.146Z,61.88
2018-09-24T06:46:23.137Z,61.88
2018-09-24T06:47:23.129Z,67.50
2018-09-24T06:48:23.214Z,67.50
2018-09-24T06:49:23.091Z,67.50
2018-09-24T06:50:23.085Z,67.50
2018-09-24T06:51:23.083Z,67.50
2018-09-24T06:52:23.078Z,67.50
2018-09-24T06:53:23.093Z,67.50
2018-09-24T06:54:23.038Z,67.50
2018-09-24T06:55:23.027Z,67.50
2018-09-24T06:56:23.034Z,67.50
2018-09-24T06:57:23.011Z,67.50
2018-09-24T06:58:23.018Z,67.50
2018-09-24T06:59:23.021Z,67.50
2018-09-24T07:00:22.990Z,67.50
2018-09-24T07:01:22.961Z,73.12
2018-09-24T07:02:22.958Z,73.12
2018-09-24T07:03:22.946Z,73.12
2018-09-24T07:04:22.957Z,73.12
2018-09-24T07:05:23.019Z,73.12
2018-09-24T07:06:22.917Z,73.12
2018-09-24T07:07:22.891Z,73.12
2018-09-24T07:08:22.881Z,73.12
2018-09-24T07:09:22.904Z,73.12
2018-09-24T07:10:22.886Z,73.12
2018-09-24T07:11:22.958Z,73.12
2018-09-24T07:12:22.849Z,73.12
2018-09-24T07:13:22.828Z,73.12
2018-09-24T07:14:22.863Z,73.12
2018-09-24T07:15:22.818Z,78.75
2018-09-24T07:16:22.823Z,78.75
2018-09-24T07:17:22.783Z,78.75
2018-09-24T07:18:22.767Z,78.75
2018-09-24T07:19:22.810Z,78.75
2018-09-24T07:20:22.744Z,78.75
2018-09-24T07:21:22.783Z,78.75
2018-09-24T07:22:22.723Z,78.75
2018-09-24T07:23:22.733Z,78.75
2018-09-24T07:24:22.741Z,78.75
2018-09-24T07:25:22.714Z,78.75
2018-09-24T07:26:22.683Z,84.38
2018-09-24T07:27:22.668Z,84.38
2018-09-24T07:28:22.696Z,84.38
2018-09-24T07:29:22.660Z,84.38
2018-09-24T07:30:22.678Z,84.38
2018-09-24T07:31:22.631Z,84.38
2018-09-24T07:32:22.624Z,84.38
2018-09-24T07:33:22.659Z,90.00
2018-09-24T07:34:22.596Z,90.00
2018-09-24T07:35:22.600Z,90.00
2018-09-24T07:36:22.581Z,90.00
2018-09-24T07:37:22.568Z,90.00
2018-09-24T07:38:22.558Z,90.00
2018-09-24T07:39:22.564Z,95.62
2018-09-24T07:40:22.549Z,90.00
2018-09-24T07:41:22.535Z,95.62
2018-09-24T07:42:22.510Z,95.62
2018-09-24T07:43:22.582Z,95.62
2018-09-24T07:44:22.495Z,95.62
2018-09-24T07:45:22.464Z,95.62
2018-09-24T07:46:22.493Z,95.62
2018-09-24T07:47:22.447Z,123.75
2018-09-24T07:48:22.439Z,163.12
2018-09-24T07:49:22.458Z,146.25
2018-09-24T07:50:22.413Z,118.12
2018-09-24T07:51:22.445Z,140.62
2018-09-24T07:52:22.398Z,298.12
2018-09-24T07:53:22.385Z,219.38
2018-09-24T07:55:23.530Z,106.88
2018-09-24T07:56:22.384Z,106.88
2018-09-24T07:57:22.331Z,135.00
2018-09-24T07:58:22.326Z,478.12
2018-09-24T07:59:22.322Z,781.88
2018-09-24T08:00:22.312Z,1018.12
2018-09-24T08:01:22.322Z,990.00
2018-09-24T08:02:22.282Z,804.38
2018-09-24T08:03:22.284Z,562.50
2018-09-24T08:04:22.274Z,545.62
2018-09-24T08:05:22.275Z,826.88
2018-09-24T08:06:22.268Z,1310.62
2018-09-24T08:07:22.275Z,1558.12
2018-09-24T08:08:22.209Z,1462.50
2018-09-24T08:09:22.213Z,742.50
2018-09-24T08:10:22.200Z,506.25
2018-09-24T08:11:22.202Z,540.00
2018-09-24T08:12:22.197Z,365.62
2018-09-24T08:13:22.245Z,590.62
2018-09-24T08:14:22.155Z,759.38
2018-09-24T08:15:22.150Z,1344.38
2018-09-24T08:16:22.163Z,691.88
2018-09-24T08:17:22.118Z,551.25
2018-09-24T08:18:22.114Z,421.88
2018-09-24T08:19:22.098Z,450.00
2018-09-24T08:20:22.089Z,860.62
2018-09-24T08:21:22.106Z,472.50
2018-09-24T08:22:22.087Z,292.50
2018-09-24T08:23:22.063Z,556.88
2018-09-24T08:24:22.034Z,1080.00
2018-09-24T08:25:22.031Z,1310.62
2018-09-24T08:26:22.030Z,1659.38
2018-09-24T08:27:22.037Z,1372.50
2018-09-24T08:28:22.002Z,1254.38
2018-09-24T08:29:21.990Z,1496.25
2018-09-24T08:30:21.971Z,1411.88
2018-09-24T08:31:21.958Z,1063.12
2018-09-24T08:32:21.979Z,2019.38
2018-09-24T08:33:21.947Z,1991.25
2018-09-24T08:34:21.933Z,1350.00
2018-09-24T08:35:21.925Z,1507.50
2018-09-24T08:36:21.935Z,658.12
2018-09-24T08:37:21.924Z,540.00
2018-09-24T08:38:21.894Z,624.38
2018-09-24T08:39:21.885Z,624.38
2018-09-24T08:40:21.879Z,714.38
2018-09-24T08:41:21.858Z,416.25
2018-09-24T08:42:21.857Z,264.38
2018-09-24T08:43:21.830Z,258.75
2018-09-24T08:44:21.815Z,506.25
2018-09-24T08:45:21.829Z,815.62
2018-09-24T08:46:21.817Z,568.12
2018-09-24T08:47:21.818Z,849.38
2018-09-24T08:48:21.798Z,787.50
2018-09-24T08:49:21.770Z,433.12
2018-09-24T08:50:21.756Z,185.62
2018-09-24T08:51:21.739Z,146.25
2018-09-24T08:52:21.751Z,140.62
2018-09-24T08:53:21.790Z,129.38
2018-09-24T08:54:21.712Z,163.12
2018-09-24T08:55:21.753Z,151.88
2018-09-24T08:56:21.698Z,258.75
2018-09-24T08:57:21.775Z,230.62
2018-09-24T08:58:21.698Z,230.62
2018-09-24T08:59:21.653Z,270.00
2018-09-24T09:00:21.638Z,140.62
2018-09-24T09:01:21.632Z,135.00
2018-09-24T09:02:21.637Z,573.75
2018-09-24T09:03:21.633Z,382.50
2018-09-24T09:04:21.597Z,303.75
2018-09-24T09:05:21.600Z,140.62
2018-09-24T09:06:21.590Z,168.75
2018-09-24T09:07:21.566Z,106.88
2018-09-24T09:08:21.736Z,129.38
2018-09-24T09:09:21.569Z,135.00
2018-09-24T09:10:21.540Z,208.12
2018-09-24T09:11:21.520Z,326.25
2018-09-24T09:12:21.516Z,489.38
2018-09-24T09:13:21.514Z,191.25
2018-09-24T09:14:21.506Z,731.25
2018-09-24T09:15:21.519Z,1164.38
2018-09-24T09:16:21.491Z,1282.50
2018-09-24T09:17:21.451Z,776.25
2018-09-24T09:18:21.479Z,528.75
2018-09-24T09:19:21.435Z,326.25
2018-09-24T09:21:22.557Z,151.88
2018-09-24T09:22:21.397Z,140.62
2018-09-24T09:23:21.408Z,140.62
2018-09-24T09:24:21.377Z,230.62
2018-09-24T09:25:21.374Z,208.12
2018-09-24T09:26:21.377Z,180.00
2018-09-24T09:27:21.353Z,270.00
2018-09-24T09:28:21.381Z,556.88
2018-09-24T09:29:21.342Z,433.12
2018-09-24T09:30:21.314Z,573.75
2018-09-24T09:31:21.318Z,500.62
2018-09-24T09:32:21.325Z,270.00
2018-09-24T09:33:21.304Z,303.75
2018-09-24T09:34:21.274Z,286.88
2018-09-24T09:35:21.339Z,225.00
2018-09-24T09:36:21.267Z,202.50
2018-09-24T09:37:21.243Z,196.88
2018-09-24T09:38:21.361Z,303.75
2018-09-24T09:39:21.268Z,241.88
2018-09-24T09:40:21.205Z,241.88
2018-09-24T09:41:21.212Z,326.25
2018-09-24T09:42:21.189Z,393.75
2018-09-24T09:43:21.210Z,585.00
2018-09-24T09:44:21.165Z,618.75
2018-09-24T09:45:21.156Z,303.75
2018-09-24T09:46:21.141Z,236.25
2018-09-24T09:48:22.284Z,427.50
2018-09-24T09:49:21.133Z,787.50
2018-09-24T09:50:21.104Z,1170.00
2018-09-24T09:51:21.091Z,1181.25
2018-09-24T09:52:21.077Z,286.88
2018-09-24T09:53:21.066Z,388.12
2018-09-24T09:54:21.096Z,213.75
2018-09-24T09:55:21.065Z,545.62
2018-09-24T09:56:21.022Z,371.25
2018-09-24T09:57:21.015Z,511.88
2018-09-24T09:58:21.018Z,208.12
2018-09-24T09:59:21.051Z,871.88
2018-09-24T10:00:21.020Z,163.12
2018-09-24T10:01:20.983Z,511.88
2018-09-24T10:02:20.973Z,354.38
2018-09-24T10:03:20.958Z,967.50
2018-09-24T10:04:20.970Z,961.88
2018-09-24T10:05:20.932Z,877.50
2018-09-24T10:06:20.924Z,1096.88
2018-09-24T10:07:20.907Z,1108.12
2018-09-24T10:08:20.903Z,1006.88
2018-09-24T10:09:20.904Z,1108.12
2018-09-24T10:10:20.871Z,1085.62
2018-09-24T10:11:20.902Z,1080.00
2018-09-24T10:12:20.880Z,1096.88
2018-09-24T10:13:20.838Z,1119.38
2018-09-24T10:14:20.852Z,939.38
2018-09-24T10:15:20.824Z,1057.50
2018-09-24T10:16:20.839Z,1040.62
2018-09-24T10:17:20.808Z,1018.12
2018-09-24T10:18:20.792Z,945.00
2018-09-24T10:19:20.819Z,697.50
2018-09-24T10:20:20.800Z,489.38
2018-09-24T10:21:20.756Z,421.88
2018-09-24T10:22:20.749Z,562.50
2018-09-24T10:23:20.736Z,753.75
2018-09-24T10:24:20.755Z,151.88
2018-09-24T10:25:20.740Z,905.62
2018-09-24T10:26:20.716Z,877.50
2018-09-24T10:27:20.687Z,888.75
2018-09-24T10:28:20.684Z,624.38
2018-09-24T10:29:20.693Z,163.12
2018-09-24T10:30:20.679Z,230.62
2018-09-24T10:31:20.650Z,151.88
2018-09-24T10:32:20.639Z,376.88
2018-09-24T10:33:20.635Z,433.12
2018-09-24T10:34:20.611Z,421.88
2018-09-24T10:35:20.615Z,191.25
2018-09-24T10:36:20.628Z,455.62
2018-09-24T10:37:20.590Z,483.75
2018-09-24T10:38:20.569Z,613.12
2018-09-24T10:39:20.560Z,765.00
2018-09-24T10:40:20.552Z,821.25
2018-09-24T10:41:20.632Z,174.38
2018-09-24T10:42:20.521Z,146.25
2018-09-24T10:43:20.514Z,585.00
2018-09-24T10:44:20.501Z,528.75
2018-09-24T10:45:20.500Z,95.62
2018-09-24T10:46:20.508Z,78.75
2018-09-24T10:47:20.482Z,90.00
2018-09-24T10:48:20.458Z,337.50
2018-09-24T10:49:20.451Z,118.12
2018-09-24T10:50:20.437Z,292.50
2018-09-24T10:51:20.462Z,320.62
2018-09-24T10:52:20.416Z,146.25
2018-09-24T10:53:20.405Z,371.25
2018-09-24T10:54:20.394Z,129.38
2018-09-24T10:55:20.390Z,146.25
2018-09-24T10:56:20.389Z,213.75
2018-09-24T10:57:20.405Z,241.88
2018-09-24T10:58:20.352Z,230.62
2018-09-24T10:59:20.381Z,241.88
2018-09-24T11:00:20.334Z,230.62
2018-09-24T11:01:20.321Z,213.75
2018-09-24T11:02:20.328Z,185.62
2018-09-24T11:03:20.314Z,236.25
2018-09-24T11:04:20.302Z,247.50
2018-09-24T11:05:20.272Z,241.88
2018-09-24T11:06:20.266Z,196.88
2018-09-24T11:07:21.358Z,202.50
2018-09-24T11:08:20.237Z,230.62
2018-09-24T11:09:20.233Z,225.00
2018-09-24T11:10:20.294Z,140.62
2018-09-24T11:11:20.326Z,123.75
2018-09-24T11:12:20.224Z,123.75
2018-09-24T11:13:20.189Z,123.75
2018-09-24T11:14:20.181Z,129.38
2018-09-24T11:15:20.185Z,478.12
2018-09-24T11:16:20.254Z,511.88
2018-09-24T11:17:20.263Z,540.00
2018-09-24T11:18:20.207Z,545.62
2018-09-24T11:19:20.149Z,590.62
2018-09-24T11:20:20.141Z,725.62
2018-09-24T11:21:20.107Z,309.38
2018-09-24T11:22:20.144Z,545.62
2018-09-24T11:23:20.087Z,461.25
2018-09-24T11:24:20.062Z,185.62
2018-09-24T11:25:20.047Z,253.12
2018-09-24T11:27:21.023Z,388.12
2018-09-24T11:28:20.034Z,213.75
2018-09-24T11:29:20.288Z,135.00
2018-09-24T11:30:20.002Z,118.12
2018-09-24T11:31:19.984Z,112.50
2018-09-24T11:32:19.972Z,78.75
2018-09-24T11:33:19.984Z,56.25
2018-09-24T11:34:19.954Z,50.62
2018-09-24T11:35:19.937Z,56.25
2018-09-24T11:36:19.939Z,73.12
2018-09-24T11:37:19.930Z,90.00
2018-09-24T11:38:19.936Z,95.62
2018-09-24T11:39:19.895Z,106.88
2018-09-24T11:40:19.928Z,112.50
2018-09-24T11:41:19.869Z,123.75
2018-09-24T11:42:19.857Z,140.62
2018-09-24T11:43:19.896Z,191.25
2018-09-24T11:44:19.857Z,163.12
2018-09-24T11:45:19.830Z,174.38
2018-09-24T11:46:19.816Z,157.50
2018-09-24T11:47:19.823Z,95.62
2018-09-24T11:48:19.815Z,90.00
2018-09-24T11:49:19.803Z,95.62
2018-09-24T11:50:19.783Z,118.12
2018-09-24T11:51:19.779Z,191.25
2018-09-24T11:52:19.750Z,202.50
2018-09-24T11:53:19.796Z,157.50
2018-09-24T11:54:19.729Z,213.75
2018-09-24T11:55:19.735Z,202.50
2018-09-24T11:56:19.738Z,196.88
2018-09-24T11:57:19.699Z,185.62
2018-09-24T11:58:19.708Z,180.00
2018-09-24T11:59:19.690Z,196.88
2018-09-24T12:00:19.665Z,225.00
2018-09-24T12:01:19.658Z,253.12
2018-09-24T12:02:19.682Z,236.25
2018-09-24T12:03:19.631Z,230.62
2018-09-24T12:04:19.641Z,157.50
2018-09-24T12:05:19.634Z,185.62
2018-09-24T12:06:19.616Z,202.50
2018-09-24T12:07:19.608Z,196.88
2018-09-24T12:08:19.575Z,208.12
2018-09-24T12:09:19.602Z,180.00
2018-09-24T12:10:19.573Z,123.75
2018-09-24T12:11:19.545Z,112.50
2018-09-24T12:12:19.537Z,101.25
2018-09-24T12:13:19.532Z,90.00
2018-09-24T12:14:19.565Z,78.75
2018-09-24T12:15:19.498Z,73.12
2018-09-24T12:16:19.504Z,78.75
2018-09-24T12:17:19.510Z,73.12
2018-09-24T12:18:19.469Z,78.75
2018-09-24T12:19:19.497Z,78.75
2018-09-24T12:20:19.447Z,78.75
2018-09-24T12:21:19.449Z,95.62
2018-09-24T12:22:19.454Z,118.12
2018-09-24T12:24:20.597Z,106.88
2018-09-24T12:25:19.397Z,112.50
2018-09-24T12:26:19.385Z,106.88
2018-09-24T12:27:19.383Z,146.25
2018-09-24T12:28:19.358Z,129.38
2018-09-24T12:29:19.363Z,123.75
2018-09-24T12:30:19.366Z,123.75
2018-09-24T12:31:19.329Z,123.75
2018-09-24T12:32:19.320Z,123.75
2018-09-24T12:33:19.312Z,123.75
2018-09-24T12:34:19.294Z,123.75
2018-09-24T12:35:19.300Z,123.75
2018-09-24T12:36:19.290Z,123.75
2018-09-24T12:37:19.258Z,123.75
2018-09-24T12:38:19.263Z,118.12
2018-09-24T12:39:19.314Z,123.75
2018-09-24T12:40:19.253Z,123.75
2018-09-24T12:41:19.231Z,118.12
2018-09-24T12:42:19.225Z,118.12
2018-09-24T12:43:19.271Z,118.12
2018-09-24T12:44:19.202Z,123.75
2018-09-24T12:45:19.185Z,123.75
2018-09-24T12:46:19.183Z,123.75
2018-09-24T12:47:19.178Z,123.75
2018-09-24T12:48:19.166Z,129.38
2018-09-24T12:49:19.132Z,112.50
2018-09-24T12:50:19.148Z,84.38
2018-09-24T12:51:19.107Z,84.38
2018-09-24T12:52:19.113Z,101.25
2018-09-24T12:53:19.128Z,95.62
2018-09-24T12:54:19.080Z,78.75
2018-09-24T12:55:19.063Z,78.75
2018-09-24T12:56:19.077Z,90.00
2018-09-24T12:57:19.065Z,101.25
2018-09-24T12:58:19.035Z,106.88
2018-09-24T12:59:19.022Z,106.88
2018-09-24T13:00:19.016Z,106.88
2018-09-24T13:01:19.067Z,106.88
2018-09-24T13:02:18.983Z,101.25
2018-09-24T13:03:18.977Z,90.00
2018-09-24T13:04:18.965Z,90.00
2018-09-24T13:05:18.951Z,140.62
2018-09-24T13:06:18.956Z,140.62
2018-09-24T13:07:18.937Z,146.25